createdAt,value
2017-04-16T00:00:43.433Z,5.32
2017-04-16T00:01:43.825Z,4.90
2017-04-16T00:02:44.197Z,6.33
2017-04-16T00:03:44.434Z,5.58
2017-04-16T00:04:44.850Z,4.90
2017-04-16T00:05:45.082Z,4.73
2017-04-16T00:06:45.326Z,4.68
2017-04-16T00:07:45.623Z,5.15
2017-04-16T00:08:45.894Z,5.40
2017-04-16T00:09:46.134Z,4.45
2017-04-16T00:10:46.366Z,5.45
2017-04-16T00:11:46.644Z,4.60
2017-04-16T00:12:46.927Z,4.27
2017-04-16T00:13:47.182Z,4.62
2017-04-16T00:14:47.409Z,3.88
2017-04-16T00:15:47.642Z,4.55
2017-04-16T00:16:48.624Z,4.70
2017-04-16T00:17:48.929Z,4.73
2017-04-16T00:18:49.187Z,4.42
2017-04-16T00:19:49.578Z,4.07
2017-04-16T00:20:49.858Z,4.47
2017-04-16T00:21:50.156Z,4.08
2017-04-16T00:22:50.455Z,4.32
2017-04-16T00:23:50.709Z,4.35
2017-04-16T00:24:50.992Z,4.23
2017-04-16T00:25:52.305Z,4.28
2017-04-16T00:26:52.597Z,4.12
2017-04-16T00:27:53.146Z,5.27
2017-04-16T00:28:53.523Z,4.95
2017-04-16T00:29:54.034Z,3.72
2017-04-16T00:30:54.280Z,4.95
2017-04-16T00:31:54.557Z,5.90
2017-04-16T00:32:54.923Z,4.25
2017-04-16T00:33:55.347Z,5.28
2017-04-16T00:34:55.701Z,4.92
2017-04-16T00:35:55.934Z,4.98
2017-04-16T00:36:56.168Z,5.27
2017-04-16T00:37:56.402Z,4.48
2017-04-16T00:38:56.629Z,5.08
2017-04-16T00:39:56.918Z,4.70
2017-04-16T00:40:57.127Z,4.72
2017-04-16T00:41:57.446Z,5.25
2017-04-16T00:42:57.650Z,6.25
2017-04-16T00:43:57.896Z,4.98
2017-04-16T00:44:58.169Z,5.80
2017-04-16T00:45:58.421Z,6.20
2017-04-16T00:46:59.639Z,5.60
2017-04-16T00:47:59.858Z,6.08
2017-04-16T00:49:00.102Z,5.13
2017-04-16T00:50:00.373Z,6.13
2017-04-16T00:51:00.605Z,6.57
2017-04-16T00:52:00.855Z,4.45
2017-04-16T00:53:01.109Z,5.42
2017-04-16T00:54:01.335Z,4.95
2017-04-16T00:55:01.597Z,6.75
2017-04-16T00:56:01.810Z,5.97
2017-04-16T00:57:02.805Z,5.48
2017-04-16T00:58:03.021Z,5.17
2017-04-16T00:59:03.317Z,5.18
2017-04-16T01:00:03.562Z,5.62
2017-04-16T01:01:09.158Z,4.27
2017-04-16T01:03:12.534Z,5.58
2017-04-16T01:04:12.818Z,5.10
2017-04-16T01:05:13.993Z,5.53
2017-04-16T01:06:14.280Z,4.58
2017-04-16T01:07:14.815Z,4.00
2017-04-16T01:08:15.838Z,5.85
2017-04-16T01:09:16.046Z,5.60
2017-04-16T01:10:16.381Z,4.85
2017-04-16T01:11:16.634Z,5.25
2017-04-16T01:12:16.853Z,4.63
2017-04-16T01:13:17.095Z,5.75
2017-04-16T01:14:17.322Z,4.50
2017-04-16T01:15:17.569Z,4.65
2017-04-16T01:16:17.766Z,4.82
2017-04-16T01:17:18.007Z,4.20
2017-04-16T01:18:18.298Z,5.27
2017-04-16T01:19:18.537Z,4.53
2017-04-16T01:20:18.759Z,4.77
2017-04-16T01:21:18.990Z,5.82
2017-04-16T01:22:19.499Z,5.05
2017-04-16T01:23:19.791Z,5.60
2017-04-16T01:24:20.048Z,5.33
2017-04-16T01:25:21.053Z,5.80
2017-04-16T01:26:21.261Z,5.52
2017-04-16T01:27:21.699Z,5.63
2017-04-16T01:28:22.219Z,5.88
2017-04-16T01:29:22.443Z,5.98
2017-04-16T01:30:22.681Z,4.18
2017-04-16T01:31:22.897Z,6.43
2017-04-16T01:32:23.149Z,5.40
2017-04-16T01:33:23.438Z,5.07
2017-04-16T01:34:23.682Z,5.55
2017-04-16T01:35:23.972Z,6.62
2017-04-16T01:36:24.229Z,5.32
2017-04-16T01:37:24.476Z,6.57
2017-04-16T01:38:24.741Z,5.65
2017-04-16T01:39:25.006Z,5.78
2017-04-16T01:40:25.252Z,5.43
2017-04-16T01:41:26.190Z,4.95
2017-04-16T01:42:26.402Z,5.35
2017-04-16T01:43:26.834Z,6.82
2017-04-16T01:44:27.182Z,6.55
2017-04-16T01:45:27.625Z,5.15
2017-04-16T01:46:27.860Z,7.30
2017-04-16T01:47:28.156Z,7.72
2017-04-16T01:48:28.422Z,7.63
2017-04-16T01:49:28.664Z,5.92
2017-04-16T01:50:29.114Z,7.05
2017-04-16T01:51:29.342Z,6.50
2017-04-16T01:52:29.629Z,5.75
2017-04-16T01:53:29.929Z,7.18
2017-04-16T01:54:30.124Z,7.25
2017-04-16T01:55:30.345Z,8.05
2017-04-16T01:56:30.578Z,7.20
2017-04-16T01:57:30.901Z,6.87
2017-04-16T01:58:31.134Z,6.10
2017-04-16T01:59:31.401Z,6.38
2017-04-16T02:00:31.678Z,5.93
2017-04-16T02:01:32.221Z,5.88
2017-04-16T02:02:32.693Z,5.82
2017-04-16T02:03:33.078Z,5.33
2017-04-16T02:04:33.428Z,6.17
2017-04-16T02:05:33.956Z,5.12
2017-04-16T02:06:34.646Z,5.47
2017-04-16T02:07:35.290Z,6.23
2017-04-16T02:08:36.045Z,6.43
2017-04-16T02:09:36.241Z,5.45
2017-04-16T02:10:36.448Z,4.98
2017-04-16T02:11:36.672Z,4.88
2017-04-16T02:12:36.914Z,7.00
2017-04-16T02:13:37.186Z,4.75
2017-04-16T02:14:37.421Z,4.22
2017-04-16T02:15:37.745Z,5.68
2017-04-16T02:16:37.946Z,4.77
2017-04-16T02:17:38.273Z,5.83
2017-04-16T02:18:38.521Z,5.67
2017-04-16T02:19:38.724Z,4.62
2017-04-16T02:20:39.102Z,5.73
2017-04-16T02:21:39.375Z,4.48
2017-04-16T02:22:39.609Z,5.07
2017-04-16T02:23:40.187Z,5.92
2017-04-16T02:24:40.378Z,6.27
2017-04-16T02:25:40.613Z,4.67
2017-04-16T02:26:40.837Z,5.55
2017-04-16T02:27:41.402Z,5.40
2017-04-16T02:28:41.637Z,5.72
2017-04-16T02:29:41.860Z,4.50
2017-04-16T02:30:42.065Z,5.48
2017-04-16T02:31:42.281Z,3.92
2017-04-16T02:32:42.562Z,4.95
2017-04-16T02:33:42.856Z,4.85
2017-04-16T02:34:43.274Z,5.03
2017-04-16T02:35:43.541Z,6.55
2017-04-16T02:36:44.056Z,5.63
2017-04-16T02:37:44.371Z,4.08
2017-04-16T02:38:45.582Z,4.68
2017-04-16T02:39:45.801Z,6.18
2017-04-16T02:40:47.226Z,5.20
2017-04-16T02:41:48.254Z,5.40
2017-04-16T02:42:48.529Z,4.60
2017-04-16T02:43:48.778Z,5.65
2017-04-16T02:44:49.027Z,5.38
2017-04-16T02:45:50.023Z,5.40
2017-04-16T02:46:50.257Z,5.82
2017-04-16T02:47:50.549Z,5.68
2017-04-16T02:48:50.885Z,5.73
2017-04-16T02:49:51.180Z,5.20
2017-04-16T02:50:51.618Z,5.45
2017-04-16T02:51:51.861Z,6.73
2017-04-16T02:52:52.142Z,5.98
2017-04-16T02:53:52.450Z,5.53
2017-04-16T02:54:52.687Z,5.73
2017-04-16T02:55:53.133Z,5.78
2017-04-16T02:56:53.466Z,5.43
2017-04-16T02:57:53.743Z,5.47
2017-04-16T02:58:54.382Z,5.25
2017-04-16T02:59:54.723Z,5.57
2017-04-16T03:00:55.134Z,5.23
2017-04-16T03:01:55.433Z,4.57
2017-04-16T03:02:55.857Z,5.43
2017-04-16T03:03:56.442Z,5.38
2017-04-16T03:04:56.722Z,5.73
2017-04-16T03:05:57.095Z,4.85
2017-04-16T03:06:57.340Z,5.40
2017-04-16T03:07:57.673Z,5.12
2017-04-16T03:08:57.993Z,4.12
2017-04-16T03:09:58.226Z,5.23
2017-04-16T03:10:58.513Z,6.17
2017-04-16T03:11:58.745Z,5.77
2017-04-16T03:12:59.003Z,4.73
2017-04-16T03:13:59.277Z,5.80
2017-04-16T03:14:59.502Z,5.87
2017-04-16T03:15:59.761Z,5.17
2017-04-16T03:17:00.117Z,5.17
2017-04-16T03:18:00.384Z,6.07
2017-04-16T03:19:00.622Z,5.58
2017-04-16T03:20:00.829Z,6.23
2017-04-16T03:21:01.028Z,6.70
2017-04-16T03:22:01.345Z,5.62
2017-04-16T03:23:01.569Z,6.68
2017-04-16T03:24:01.837Z,5.33
2017-04-16T03:25:02.023Z,6.28
2017-04-16T03:26:02.236Z,5.43
2017-04-16T03:27:02.525Z,5.53
2017-04-16T03:28:02.913Z,5.65
2017-04-16T03:29:03.174Z,5.23
2017-04-16T03:30:03.503Z,5.18
2017-04-16T03:31:03.750Z,4.70
2017-04-16T03:32:03.973Z,6.25
2017-04-16T03:33:04.182Z,6.18
2017-04-16T03:34:04.474Z,4.97
2017-04-16T03:35:04.779Z,5.87
2017-04-16T03:36:04.978Z,6.27
2017-04-16T03:37:05.239Z,5.75
2017-04-16T03:38:05.441Z,4.85
2017-04-16T03:39:06.306Z,5.22
2017-04-16T03:40:06.550Z,5.37
2017-04-16T03:41:06.890Z,6.33
2017-04-16T03:42:07.217Z,5.52
2017-04-16T03:43:07.467Z,6.18
2017-04-16T03:44:07.791Z,5.13
2017-04-16T03:45:07.997Z,4.95
2017-04-16T03:46:08.229Z,6.05
2017-04-16T03:47:08.444Z,6.05
2017-04-16T03:48:08.642Z,6.38
2017-04-16T03:49:09.201Z,6.85
2017-04-16T03:50:09.418Z,5.85
2017-04-16T03:51:09.694Z,6.60
2017-04-16T03:52:09.900Z,6.27
2017-04-16T03:53:10.101Z,6.43
2017-04-16T03:54:10.453Z,6.23
2017-04-16T03:55:11.457Z,6.93
2017-04-16T03:56:11.730Z,6.60
2017-04-16T03:57:12.321Z,6.42
2017-04-16T03:58:12.569Z,6.80
2017-04-16T03:59:12.788Z,6.37
2017-04-16T04:00:13.241Z,6.38
2017-04-16T04:01:13.861Z,6.27
2017-04-16T04:02:14.125Z,6.60
2017-04-16T04:03:14.329Z,6.53
2017-04-16T04:04:15.015Z,5.97
2017-04-16T04:05:15.325Z,5.50
2017-04-16T04:06:16.371Z,7.75
2017-04-16T04:07:16.874Z,5.30
2017-04-16T04:08:17.166Z,5.75
2017-04-16T04:09:17.422Z,6.23
2017-04-16T04:10:17.647Z,5.35
2017-04-16T04:11:18.029Z,5.05
2017-04-16T04:12:18.355Z,6.80
2017-04-16T04:13:18.566Z,6.40
2017-04-16T04:14:18.787Z,5.23
2017-04-16T04:15:19.031Z,4.38
2017-04-16T04:16:19.269Z,5.25
2017-04-16T04:17:19.537Z,4.82
2017-04-16T04:18:19.743Z,5.30
2017-04-16T04:19:19.994Z,5.57
2017-04-16T04:20:20.617Z,4.63
2017-04-16T04:21:20.846Z,6.30
2017-04-16T04:22:21.162Z,4.70
2017-04-16T04:23:21.372Z,4.23
2017-04-16T04:24:21.601Z,5.22
2017-04-16T04:25:21.833Z,5.48
2017-04-16T04:26:22.019Z,5.65
2017-04-16T04:27:22.270Z,6.10
2017-04-16T04:28:22.511Z,6.45
2017-04-16T04:29:22.715Z,5.15
2017-04-16T04:30:22.954Z,5.13
2017-04-16T04:31:23.235Z,5.37
2017-04-16T04:32:23.607Z,4.98
2017-04-16T04:33:23.830Z,5.95
2017-04-16T04:34:24.231Z,5.85
2017-04-16T04:35:24.492Z,4.95
2017-04-16T04:36:24.725Z,5.82
2017-04-16T04:37:24.989Z,5.85
2017-04-16T04:38:25.201Z,6.33
2017-04-16T04:39:25.426Z,6.58
2017-04-16T04:40:25.663Z,5.20
2017-04-16T04:41:26.161Z,5.75
2017-04-16T04:42:26.411Z,5.27
2017-04-16T04:43:26.641Z,4.62
2017-04-16T04:44:26.881Z,5.58
2017-04-16T04:45:27.241Z,6.10
2017-04-16T04:46:27.452Z,5.13
2017-04-16T04:47:27.738Z,6.40
2017-04-16T04:48:27.923Z,6.23
2017-04-16T04:49:28.154Z,5.70
2017-04-16T04:50:28.474Z,6.07
2017-04-16T04:51:28.666Z,4.83
2017-04-16T04:52:28.914Z,5.13
2017-04-16T04:53:29.118Z,6.50
2017-04-16T04:54:29.330Z,4.68
2017-04-16T04:55:29.589Z,4.67
2017-04-16T04:56:29.863Z,4.77
2017-04-16T04:57:30.358Z,6.05
2017-04-16T04:58:30.635Z,4.87
2017-04-16T04:59:30.877Z,5.77
2017-04-16T05:00:31.234Z,5.72
2017-04-16T05:01:31.545Z,4.83
2017-04-16T05:02:31.874Z,5.02
2017-04-16T05:03:32.078Z,4.77
2017-04-16T05:04:32.290Z,5.73
2017-04-16T05:05:32.502Z,5.27
2017-04-16T05:06:32.706Z,5.93
2017-04-16T05:07:32.997Z,5.53
2017-04-16T05:08:33.615Z,5.97
2017-04-16T05:09:33.838Z,5.40
2017-04-16T05:10:34.352Z,5.70
2017-04-16T05:11:34.681Z,5.65
2017-04-16T05:12:36.214Z,5.73
2017-04-16T05:13:36.769Z,6.80
2017-04-16T05:14:37.195Z,5.68
2017-04-16T05:15:37.713Z,5.33
2017-04-16T05:16:37.994Z,5.38
2017-04-16T05:17:38.232Z,5.75
2017-04-16T05:18:38.457Z,6.35
2017-04-16T05:19:38.657Z,5.50
2017-04-16T05:20:38.860Z,5.42
2017-04-16T05:21:39.065Z,6.20
2017-04-16T05:22:39.341Z,6.50
2017-04-16T05:23:39.555Z,5.60
2017-04-16T05:24:39.819Z,6.65
2017-04-16T05:25:40.024Z,5.95
2017-04-16T05:26:40.982Z,5.48
2017-04-16T05:27:41.214Z,5.85
2017-04-16T05:28:41.420Z,6.30
2017-04-16T05:29:41.898Z,4.58
2017-04-16T05:30:42.123Z,5.92
2017-04-16T05:31:42.421Z,4.98
2017-04-16T05:32:42.689Z,5.98
2017-04-16T05:33:42.890Z,5.48
2017-04-16T05:34:43.438Z,6.05
2017-04-16T05:35:43.710Z,5.65
2017-04-16T05:36:43.973Z,6.75
2017-04-16T05:37:44.437Z,5.23
2017-04-16T05:38:44.903Z,5.95
2017-04-16T05:39:45.125Z,6.12
2017-04-16T05:40:45.681Z,5.77
2017-04-16T05:41:45.919Z,5.88
2017-04-16T05:42:46.181Z,5.03
2017-04-16T05:43:46.363Z,5.60
2017-04-16T05:44:47.071Z,6.28
2017-04-16T05:45:47.281Z,6.12
2017-04-16T05:46:48.067Z,5.53
2017-04-16T05:47:48.472Z,5.73
2017-04-16T05:48:49.816Z,6.53
2017-04-16T05:49:50.031Z,5.48
2017-04-16T05:50:50.715Z,6.92
2017-04-16T05:51:50.945Z,6.05
2017-04-16T05:52:51.247Z,5.68
2017-04-16T05:53:51.485Z,5.45
2017-04-16T05:54:51.684Z,4.58
2017-04-16T05:55:51.879Z,5.75
2017-04-16T05:56:52.076Z,6.23
2017-04-16T05:57:52.412Z,5.77
2017-04-16T05:58:52.771Z,5.32
2017-04-16T05:59:52.981Z,5.47
2017-04-16T06:00:53.216Z,5.15
2017-04-16T06:01:53.457Z,6.47
2017-04-16T06:02:53.768Z,5.20
2017-04-16T06:03:54.050Z,4.95
2017-04-16T06:04:54.253Z,5.03
2017-04-16T06:05:54.474Z,6.25
2017-04-16T06:06:54.989Z,5.05
2017-04-16T06:07:55.303Z,5.85
2017-04-16T06:08:56.012Z,4.93
2017-04-16T06:09:56.372Z,5.95
2017-04-16T06:10:56.891Z,5.57
2017-04-16T06:11:57.131Z,5.35
2017-04-16T06:12:57.535Z,4.97
2017-04-16T06:13:57.930Z,5.62
2017-04-16T06:14:58.122Z,5.45
2017-04-16T06:15:58.356Z,4.53
2017-04-16T06:16:58.558Z,4.82
2017-04-16T06:17:58.853Z,5.33
2017-04-16T06:18:59.612Z,6.30
2017-04-16T06:20:00.322Z,5.25
2017-04-16T06:21:01.055Z,5.33
2017-04-16T06:22:01.658Z,5.35
2017-04-16T06:23:02.030Z,5.87
2017-04-16T06:24:02.245Z,5.85
2017-04-16T06:25:02.499Z,5.33
2017-04-16T06:26:02.733Z,4.90
2017-04-16T06:27:03.027Z,5.40
2017-04-16T06:28:03.310Z,4.67
2017-04-16T06:29:02.750Z,4.42
2017-04-16T06:30:03.007Z,4.55
2017-04-16T06:31:03.244Z,4.25
2017-04-16T06:32:03.886Z,3.83
2017-04-16T06:33:04.139Z,5.07
2017-04-16T06:34:04.430Z,4.23
2017-04-16T06:35:04.905Z,4.53
2017-04-16T06:36:04.782Z,4.52
2017-04-16T06:37:05.358Z,4.28
2017-04-16T06:38:05.868Z,4.32
2017-04-16T06:39:06.849Z,4.18
2017-04-16T06:40:07.086Z,5.05
2017-04-16T06:41:07.310Z,4.38
2017-04-16T06:42:07.529Z,4.58
2017-04-16T06:43:07.839Z,3.87
2017-04-16T06:44:08.052Z,4.42
2017-04-16T06:45:08.296Z,3.90
2017-04-16T06:46:08.666Z,4.83
2017-04-16T06:47:09.780Z,4.32
2017-04-16T06:48:10.045Z,4.28
2017-04-16T06:49:10.257Z,3.97
2017-04-16T06:50:10.828Z,4.43
2017-04-16T06:51:11.833Z,4.38
2017-04-16T06:52:12.055Z,4.47
2017-04-16T06:53:12.445Z,4.80
2017-04-16T06:54:12.682Z,3.75
2017-04-16T06:55:12.929Z,4.57
2017-04-16T06:56:13.134Z,3.70
2017-04-16T06:57:14.118Z,4.20
2017-04-16T06:58:14.560Z,4.27
2017-04-16T06:59:14.750Z,4.65
2017-04-16T07:00:15.143Z,4.42
2017-04-16T07:01:15.549Z,4.18
2017-04-16T07:02:15.959Z,4.05
2017-04-16T07:03:16.488Z,4.63
2017-04-16T07:04:16.872Z,4.75
2017-04-16T07:05:17.961Z,4.07
2017-04-16T07:06:18.233Z,4.15
2017-04-16T07:07:18.534Z,4.45
2017-04-16T07:08:18.818Z,4.05
2017-04-16T07:09:19.029Z,4.87
2017-04-16T07:10:19.307Z,4.78
2017-04-16T07:11:19.527Z,4.08
2017-04-16T07:12:19.994Z,5.20
2017-04-16T07:13:20.241Z,4.07
2017-04-16T07:14:20.473Z,4.23
2017-04-16T07:15:20.771Z,3.98
2017-04-16T07:16:20.987Z,4.63
2017-04-16T07:17:21.229Z,5.03
2017-04-16T07:18:21.597Z,4.28
2017-04-16T07:19:21.889Z,4.72
2017-04-16T07:20:23.020Z,3.48
2017-04-16T07:21:23.325Z,4.60
2017-04-16T07:22:23.658Z,4.33
2017-04-16T07:23:24.782Z,4.63
2017-04-16T07:24:25.050Z,4.37
2017-04-16T07:25:25.314Z,4.48
2017-04-16T07:26:25.713Z,3.87
2017-04-16T07:27:26.005Z,4.63
2017-04-16T07:28:27.053Z,5.00
2017-04-16T07:29:27.350Z,5.12
2017-04-16T07:30:27.621Z,4.77
2017-04-16T07:31:27.993Z,4.38
2017-04-16T07:32:28.222Z,6.02
2017-04-16T07:33:28.474Z,4.72
2017-04-16T07:34:28.678Z,4.83
2017-04-16T07:35:28.931Z,4.68
2017-04-16T07:36:29.281Z,5.33
2017-04-16T07:37:29.605Z,4.62
2017-04-16T07:38:29.863Z,4.33
2017-04-16T07:39:30.115Z,4.93
2017-04-16T07:40:30.408Z,5.20
2017-04-16T07:41:30.689Z,5.25
2017-04-16T07:42:30.945Z,4.85
2017-04-16T07:43:31.158Z,4.53
2017-04-16T07:44:31.387Z,4.38
2017-04-16T07:45:31.661Z,4.75
2017-04-16T07:46:31.926Z,3.77
2017-04-16T07:47:32.151Z,5.10
2017-04-16T07:48:32.361Z,4.52
2017-04-16T07:49:32.627Z,4.88
2017-04-16T07:50:32.947Z,4.47
2017-04-16T07:51:33.201Z,4.57
2017-04-16T07:52:33.469Z,4.18
2017-04-16T07:53:33.688Z,4.33
2017-04-16T07:54:33.935Z,4.62
2017-04-16T07:55:34.204Z,4.50
2017-04-16T07:56:34.566Z,5.60
2017-04-16T07:57:34.775Z,4.20
2017-04-16T07:58:35.067Z,3.98
2017-04-16T07:59:35.283Z,4.83
2017-04-16T08:00:35.582Z,3.80
2017-04-16T08:01:36.327Z,3.63
2017-04-16T08:02:36.967Z,3.42
2017-04-16T08:03:37.242Z,4.20
2017-04-16T08:04:37.522Z,4.50
2017-04-16T08:05:38.161Z,4.03
2017-04-16T08:06:38.873Z,4.53
2017-04-16T08:07:39.113Z,4.32
2017-04-16T08:08:40.075Z,4.40
2017-04-16T08:09:40.290Z,4.07
2017-04-16T08:10:40.531Z,4.18
2017-04-16T08:11:40.864Z,3.82
2017-04-16T08:12:41.307Z,4.08
2017-04-16T08:13:41.505Z,3.93
2017-04-16T08:14:41.739Z,3.58
2017-04-16T08:15:42.148Z,3.85
2017-04-16T08:16:42.411Z,3.48
2017-04-16T08:17:42.690Z,4.67
2017-04-16T08:18:42.909Z,4.15
2017-04-16T08:19:43.133Z,4.57
2017-04-16T08:20:43.406Z,4.33
2017-04-16T08:21:43.661Z,4.13
2017-04-16T08:22:43.858Z,3.77
2017-04-16T08:23:44.128Z,4.12
2017-04-16T08:24:44.321Z,3.52
2017-04-16T08:25:44.528Z,3.97
2017-04-16T08:26:44.805Z,3.53
2017-04-16T08:27:45.066Z,4.12
2017-04-16T08:28:45.302Z,3.95
2017-04-16T08:29:45.522Z,3.42
2017-04-16T08:30:45.745Z,3.93
2017-04-16T08:31:46.896Z,3.18
2017-04-16T08:32:47.406Z,3.87
2017-04-16T08:33:49.374Z,4.07
2017-04-16T08:34:49.771Z,4.45
2017-04-16T08:35:50.200Z,4.33
2017-04-16T08:36:51.405Z,4.08
2017-04-16T08:37:52.119Z,4.43
2017-04-16T08:38:52.512Z,4.30
2017-04-16T08:39:52.865Z,4.00
2017-04-16T08:40:53.125Z,4.07
2017-04-16T08:41:53.639Z,3.45
2017-04-16T08:42:53.967Z,3.55
2017-04-16T08:43:54.241Z,4.20
2017-04-16T08:44:54.565Z,3.87
2017-04-16T08:45:54.843Z,4.37
2017-04-16T08:46:55.100Z,4.37
2017-04-16T08:47:55.398Z,3.93
2017-04-16T08:48:55.843Z,5.38
2017-04-16T08:49:56.425Z,4.33
2017-04-16T08:50:57.586Z,3.97
2017-04-16T08:51:58.513Z,4.20
2017-04-16T08:52:58.945Z,3.73
2017-04-16T08:53:59.188Z,4.02
2017-04-16T08:54:59.489Z,4.30
2017-04-16T08:55:59.756Z,4.45
2017-04-16T08:57:00.345Z,4.62
2017-04-16T08:58:01.063Z,4.00
2017-04-16T08:59:01.345Z,3.55
2017-04-16T09:00:01.593Z,4.57
2017-04-16T09:01:01.805Z,3.90
2017-04-16T09:02:02.063Z,4.45
2017-04-16T09:03:02.363Z,3.42
2017-04-16T09:04:03.351Z,4.53
2017-04-16T09:05:03.576Z,4.17
2017-04-16T09:06:03.773Z,4.50
2017-04-16T09:07:04.092Z,4.80
2017-04-16T09:08:04.300Z,4.57
2017-04-16T09:09:05.241Z,3.30
2017-04-16T09:10:05.478Z,4.23
2017-04-16T09:11:05.703Z,4.00
2017-04-16T09:12:05.957Z,4.43
2017-04-16T09:13:06.162Z,3.50
2017-04-16T09:14:06.387Z,4.18
2017-04-16T09:15:06.597Z,3.43
2017-04-16T09:16:08.106Z,3.78
2017-04-16T09:17:08.387Z,3.92
2017-04-16T09:18:08.605Z,4.38
2017-04-16T09:19:08.845Z,3.05
2017-04-16T09:20:09.065Z,3.90
2017-04-16T09:21:09.339Z,3.10
2017-04-16T09:22:09.613Z,3.58
2017-04-16T09:23:09.925Z,4.07
2017-04-16T09:24:10.286Z,3.12
2017-04-16T09:25:10.553Z,3.15
2017-04-16T09:26:10.794Z,3.50
2017-04-16T09:27:11.071Z,3.53
2017-04-16T09:28:11.299Z,4.95
2017-04-16T09:29:11.514Z,2.68
2017-04-16T09:30:11.829Z,3.77
2017-04-16T09:31:12.157Z,3.80
2017-04-16T09:32:13.217Z,3.82
2017-04-16T09:33:13.714Z,3.57
2017-04-16T09:34:13.997Z,3.60
2017-04-16T09:35:14.323Z,3.37
2017-04-16T09:36:15.442Z,3.90
2017-04-16T09:37:15.751Z,2.77
2017-04-16T09:38:16.123Z,3.40
2017-04-16T09:39:16.387Z,3.55
2017-04-16T09:40:16.614Z,3.20
2017-04-16T09:41:16.825Z,2.97
2017-04-16T09:42:17.069Z,3.93
2017-04-16T09:43:17.293Z,3.35
2017-04-16T09:44:17.523Z,3.50
2017-04-16T09:45:17.754Z,3.22
2017-04-16T09:46:17.980Z,2.88
2017-04-16T09:47:18.245Z,2.68
2017-04-16T09:48:18.576Z,2.32
2017-04-16T09:49:18.888Z,2.32
2017-04-16T09:50:19.370Z,2.45
2017-04-16T09:51:19.613Z,2.78
2017-04-16T09:52:19.890Z,2.30
2017-04-16T09:53:20.893Z,2.28
2017-04-16T09:54:21.110Z,2.40
2017-04-16T09:55:21.636Z,2.32
2017-04-16T09:56:21.886Z,3.10
2017-04-16T09:57:22.122Z,2.30
2017-04-16T09:58:22.450Z,2.97
2017-04-16T09:59:23.109Z,2.77
2017-04-16T10:00:23.328Z,2.28
2017-04-16T10:01:23.662Z,2.30
2017-04-16T10:02:23.970Z,2.82
2017-04-16T10:03:24.332Z,2.32
2017-04-16T10:04:25.347Z,2.52
2017-04-16T10:05:25.918Z,2.62
2017-04-16T10:06:26.302Z,2.32
2017-04-16T10:07:26.761Z,2.88
2017-04-16T10:08:27.113Z,3.07
2017-04-16T10:09:27.357Z,2.57
2017-04-16T10:10:27.773Z,2.80
2017-04-16T10:11:28.018Z,2.93
2017-04-16T10:12:28.290Z,3.17
2017-04-16T10:13:28.685Z,3.20
2017-04-16T10:14:28.917Z,2.92
2017-04-16T10:15:29.124Z,3.90
2017-04-16T10:16:29.381Z,3.32
2017-04-16T10:17:29.646Z,3.18
2017-04-16T10:18:29.842Z,2.93
2017-04-16T10:19:30.094Z,3.50
2017-04-16T10:20:31.317Z,2.90
2017-04-16T10:21:31.609Z,2.68
2017-04-16T10:22:32.150Z,2.97
2017-04-16T10:23:33.078Z,2.75
2017-04-16T10:24:33.310Z,2.70
2017-04-16T10:25:33.501Z,3.15
2017-04-16T10:26:33.729Z,3.07
2017-04-16T10:27:34.790Z,3.22
2017-04-16T10:28:35.007Z,2.70
2017-04-16T10:29:35.198Z,3.58
2017-04-16T10:30:35.577Z,3.17
2017-04-16T10:31:35.787Z,3.93
2017-04-16T10:32:36.332Z,3.30
2017-04-16T10:33:36.646Z,2.43
2017-04-16T10:34:37.255Z,2.38
2017-04-16T10:35:37.481Z,2.27
2017-04-16T10:36:38.463Z,2.70
2017-04-16T10:37:38.725Z,2.03
2017-04-16T10:38:38.991Z,2.85
2017-04-16T10:39:39.307Z,3.37
2017-04-16T10:40:39.506Z,3.18
2017-04-16T10:41:39.691Z,2.90
2017-04-16T10:42:40.016Z,3.07
2017-04-16T10:43:40.303Z,3.47
2017-04-16T10:44:40.517Z,3.65
2017-04-16T10:45:40.731Z,3.35
2017-04-16T10:46:40.934Z,3.18
2017-04-16T10:47:41.410Z,3.83
2017-04-16T10:48:41.629Z,3.47
2017-04-16T10:49:41.836Z,3.18
2017-04-16T10:50:42.138Z,3.20
2017-04-16T10:51:42.449Z,3.15
2017-04-16T10:52:42.726Z,3.42
2017-04-16T10:53:42.951Z,3.43
2017-04-16T10:54:43.167Z,3.07
2017-04-16T10:55:43.529Z,3.42
2017-04-16T10:56:44.076Z,3.58
2017-04-16T10:57:44.485Z,3.58
2017-04-16T10:58:44.973Z,3.30
2017-04-16T10:59:45.180Z,2.68
2017-04-16T11:00:45.825Z,3.30
2017-04-16T11:01:46.198Z,3.62
2017-04-16T11:02:46.797Z,3.40
2017-04-16T11:03:47.186Z,3.85
2017-04-16T11:04:47.655Z,3.55
2017-04-16T11:05:48.129Z,3.43
2017-04-16T11:06:50.302Z,3.60
2017-04-16T11:07:50.579Z,4.30
2017-04-16T11:08:51.191Z,4.02
2017-04-16T11:09:51.427Z,3.55
2017-04-16T11:10:51.971Z,3.57
2017-04-16T11:11:52.203Z,3.10
2017-04-16T11:12:52.887Z,3.63
2017-04-16T11:13:53.131Z,3.35
2017-04-16T11:14:53.412Z,3.38
2017-04-16T11:15:53.702Z,4.18
2017-04-16T11:16:54.256Z,3.55
2017-04-16T11:17:54.509Z,3.32
2017-04-16T11:18:53.964Z,4.17
2017-04-16T11:19:54.417Z,3.90
2017-04-16T11:20:54.698Z,3.92
2017-04-16T11:21:55.144Z,4.18
2017-04-16T11:22:55.442Z,3.23
2017-04-16T11:23:55.801Z,3.70
2017-04-16T11:24:56.082Z,3.38
2017-04-16T11:25:56.406Z,3.93
2017-04-16T11:26:56.627Z,3.95
2017-04-16T11:27:56.917Z,5.58
2017-04-16T11:28:57.149Z,4.53
2017-04-16T11:29:57.615Z,4.65
2017-04-16T11:30:57.979Z,4.98
2017-04-16T11:31:58.286Z,4.00
2017-04-16T11:32:58.500Z,4.57
2017-04-16T11:33:58.749Z,4.50
2017-04-16T11:34:58.998Z,3.95
2017-04-16T11:35:59.321Z,3.25
2017-04-16T11:36:59.583Z,3.25
2017-04-16T11:37:59.930Z,4.25
2017-04-16T11:39:00.201Z,4.18
2017-04-16T11:40:00.457Z,4.05
2017-04-16T11:41:00.762Z,3.67
2017-04-16T11:42:01.252Z,3.13
2017-04-16T11:43:01.598Z,3.52
2017-04-16T11:44:01.832Z,4.47
2017-04-16T11:45:02.134Z,4.08
2017-04-16T11:46:02.406Z,4.33
2017-04-16T11:47:02.679Z,4.38
2017-04-16T11:48:02.916Z,4.47
2017-04-16T11:49:03.898Z,4.63
2017-04-16T11:50:04.133Z,4.48
2017-04-16T11:51:04.641Z,4.30
2017-04-16T11:52:04.880Z,3.67
2017-04-16T11:53:05.591Z,3.97
2017-04-16T11:54:05.889Z,4.33
2017-04-16T11:55:06.915Z,3.80
2017-04-16T11:56:07.435Z,3.70
2017-04-16T11:57:08.053Z,4.03
2017-04-16T11:58:08.301Z,4.45
2017-04-16T11:59:09.229Z,3.85
2017-04-16T12:00:09.541Z,3.73
2017-04-16T12:01:10.122Z,4.03
2017-04-16T12:02:10.381Z,4.33
2017-04-16T12:03:10.638Z,3.28
2017-04-16T12:04:11.050Z,3.75
2017-04-16T12:05:11.286Z,3.78
2017-04-16T12:06:11.583Z,3.92
2017-04-16T12:07:12.074Z,3.98
2017-04-16T12:08:12.458Z,3.28
2017-04-16T12:09:11.960Z,3.03
2017-04-16T12:10:12.231Z,3.85
2017-04-16T12:11:12.501Z,4.07
2017-04-16T12:12:12.838Z,3.80
2017-04-16T12:13:13.382Z,4.00
2017-04-16T12:14:12.873Z,4.07
2017-04-16T12:15:13.141Z,4.28
2017-04-16T12:16:13.769Z,3.95
2017-04-16T12:17:14.001Z,4.45
2017-04-16T12:18:14.253Z,3.53
2017-04-16T12:19:14.600Z,3.87
2017-04-16T12:20:14.911Z,3.78
2017-04-16T12:21:15.474Z,4.37
2017-04-16T12:22:15.711Z,4.32
2017-04-16T12:23:15.971Z,3.88
2017-04-16T12:24:16.279Z,3.70
2017-04-16T12:25:16.538Z,3.93
2017-04-16T12:26:16.811Z,4.23
2017-04-16T12:27:17.013Z,4.13
2017-04-16T12:28:17.293Z,4.03
2017-04-16T12:29:17.508Z,4.02
2017-04-16T12:30:17.786Z,4.08
2017-04-16T12:31:18.050Z,4.43
2017-04-16T12:32:18.287Z,4.42
2017-04-16T12:33:18.529Z,4.05
2017-04-16T12:34:18.797Z,4.35
2017-04-16T12:35:19.049Z,3.60
2017-04-16T12:36:19.321Z,4.77
2017-04-16T12:37:19.605Z,4.05
2017-04-16T12:38:19.841Z,3.78
2017-04-16T12:39:20.154Z,3.32
2017-04-16T12:40:20.429Z,3.70
2017-04-16T12:41:20.746Z,4.40
2017-04-16T12:42:21.026Z,4.35
2017-04-16T12:43:21.543Z,3.82
2017-04-16T12:44:21.784Z,3.73
2017-04-16T12:45:22.037Z,4.43
2017-04-16T12:46:22.323Z,4.20
2017-04-16T12:47:22.711Z,3.03
2017-04-16T12:48:24.441Z,4.75
2017-04-16T12:49:25.477Z,4.08
2017-04-16T12:50:26.130Z,4.10
2017-04-16T12:51:26.726Z,4.63
2017-04-16T12:52:27.099Z,3.53
2017-04-16T12:53:27.534Z,3.20
2017-04-16T12:54:27.847Z,4.37
2017-04-16T12:55:28.163Z,3.50
2017-04-16T12:56:28.695Z,4.17
2017-04-16T12:57:28.239Z,4.38
2017-04-16T12:58:28.801Z,3.97
2017-04-16T12:59:29.219Z,4.73
2017-04-16T13:00:29.497Z,4.18
2017-04-16T13:01:29.926Z,4.28
2017-04-16T13:02:30.217Z,3.88
2017-04-16T13:03:30.489Z,3.67
2017-04-16T13:04:30.729Z,4.15
2017-04-16T13:05:30.989Z,3.85
2017-04-16T13:06:31.325Z,3.37
2017-04-16T13:07:31.779Z,3.10
2017-04-16T13:08:32.854Z,4.12
2017-04-16T13:09:33.145Z,3.20
2017-04-16T13:10:33.402Z,3.58
2017-04-16T13:11:34.486Z,3.97
2017-04-16T13:12:34.737Z,4.10
2017-04-16T13:13:35.052Z,3.93
2017-04-16T13:14:35.345Z,4.12
2017-04-16T13:15:35.655Z,3.90
2017-04-16T13:16:35.962Z,3.40
2017-04-16T13:17:36.318Z,3.85
2017-04-16T13:18:35.936Z,3.88
2017-04-16T13:19:36.549Z,4.42
2017-04-16T13:20:36.825Z,5.08
2017-04-16T13:21:37.132Z,5.35
2017-04-16T13:22:37.409Z,4.87
2017-04-16T13:23:37.138Z,4.95
2017-04-16T13:24:37.493Z,5.00